createdAt,value
2019-06-01T00:02:25.233Z,100862.06
2019-06-01T00:07:28.687Z,100866.84
2019-06-01T00:12:32.150Z,100869.64
2019-06-01T00:17:35.616Z,100866.48
2019-06-01T00:22:39.080Z,100866.67
2019-06-01T00:27:42.574Z,100863.69
2019-06-01T00:32:47.203Z,100862.91
2019-06-01T00:37:51.815Z,100855.94
2019-06-01T00:42:55.333Z,100860.91
2019-06-01T00:47:58.818Z,100857.75
2019-06-01T00:53:02.296Z,100854.36
2019-06-01T00:58:05.775Z,100856.36
2019-06-01T01:03:09.272Z,100845.81
2019-06-01T01:08:12.761Z,100850.59
2019-06-01T01:13:17.935Z,100855.75
2019-06-01T01:18:21.392Z,100852.59
2019-06-01T01:23:24.854Z,100849.81
2019-06-01T01:28:28.330Z,100858.81
2019-06-01T01:33:31.791Z,100857.23
2019-06-01T01:38:35.256Z,100861.60
2019-06-01T01:43:38.718Z,100865.41
2019-06-01T01:48:42.183Z,100864.81
2019-06-01T01:53:45.645Z,100863.41
2019-06-01T01:58:50.253Z,100870.20
2019-06-01T02:03:55.362Z,100856.08
2019-06-01T02:08:59.393Z,100861.05
2019-06-01T02:14:03.234Z,100859.66
2019-06-01T02:19:06.725Z,100856.08
2019-06-01T02:24:10.188Z,100851.89
2019-06-01T02:29:13.678Z,100853.89
2019-06-01T02:34:17.160Z,100852.50
2019-06-01T02:39:20.655Z,100847.11
2019-06-01T02:44:24.157Z,100844.50
2019-06-01T02:49:27.599Z,100838.50
2019-06-01T02:54:31.074Z,100843.48
2019-06-01T02:59:34.551Z,100843.29
2019-06-01T03:04:38.017Z,100834.92
2019-06-01T03:09:42.134Z,100837.11
2019-06-01T03:14:47.199Z,100838.32
2019-06-01T03:19:52.577Z,100839.72
2019-06-01T03:24:59.786Z,100838.32
2019-06-01T03:30:12.231Z,100845.90
2019-06-01T03:35:14.453Z,100842.32
2019-06-01T03:40:23.806Z,100842.92
2019-06-01T03:45:23.106Z,100838.74
2019-06-01T03:50:26.576Z,100844.32
2019-06-01T03:55:30.043Z,100848.32
2019-06-01T04:00:33.500Z,100839.35
2019-06-01T04:05:36.970Z,100844.75
2019-06-01T04:10:40.432Z,100849.72
2019-06-01T04:15:43.901Z,100854.69
2019-06-01T04:20:47.379Z,100844.50
2019-06-01T04:25:50.853Z,100846.69
2019-06-01T04:30:54.318Z,100854.97
2019-06-01T04:35:57.776Z,100851.14
2019-06-01T04:41:01.251Z,100858.06
2019-06-01T04:46:06.051Z,100862.94
2019-06-01T04:51:11.605Z,100870.01
2019-06-01T04:56:15.253Z,100871.34
2019-06-01T05:01:18.829Z,100872.25
2019-06-01T05:06:22.289Z,100875.77
2019-06-01T05:11:25.752Z,100878.29
2019-06-01T05:16:29.214Z,100881.35
2019-06-01T05:21:32.691Z,100887.23
2019-06-01T05:26:36.153Z,100885.30
2019-06-01T05:31:39.613Z,100888.69
2019-06-01T11:14:54.888Z,100789.08
2019-06-01T11:19:58.355Z,100787.79
2019-06-01T11:25:01.883Z,100789.54
2019-06-01T11:30:09.298Z,100785.61
2019-06-01T11:35:13.402Z,100776.80
2019-06-01T11:40:16.935Z,100766.41
2019-06-01T11:45:20.475Z,100761.34
2019-06-01T11:50:23.973Z,100757.86
2019-06-01T11:55:27.498Z,100753.54
2019-06-01T12:00:31.356Z,100751.98
2019-06-01T12:05:35.762Z,100742.58
2019-06-01T12:10:39.313Z,100737.60
2019-06-01T12:15:42.845Z,100738.64
2019-06-01T12:20:47.338Z,100735.16
2019-06-01T12:25:50.876Z,100727.92
2019-06-01T12:30:54.346Z,100711.34
2019-06-01T12:35:58.209Z,100720.23
2019-06-01T12:41:01.636Z,100713.68
2019-06-01T12:46:07.754Z,100701.11
2019-06-01T12:56:28.465Z,100711.47
2019-06-01T13:01:31.926Z,100699.13
2019-06-01T13:09:20.322Z,100685.05
2019-06-01T14:07:41.625Z,100625.42
2019-06-01T14:12:45.315Z,100623.85
2019-06-01T14:17:50.189Z,100628.22
2019-06-01T14:22:54.123Z,100619.48
2019-06-01T14:27:57.593Z,100610.84
2019-06-01T14:33:01.057Z,100619.66
2019-06-01T14:38:04.521Z,100611.80
2019-06-01T14:43:07.982Z,100615.99
2019-06-01T14:48:11.445Z,100610.58
2019-06-01T14:53:14.904Z,100614.08
2019-06-01T14:58:18.361Z,100605.52
2019-06-01T15:03:21.821Z,100603.02
2019-06-01T15:08:25.299Z,100599.61
2019-06-01T15:13:28.760Z,100590.89
2019-06-01T15:18:32.225Z,100593.68
2019-06-01T15:23:35.695Z,100583.91
2019-06-01T15:28:39.164Z,100577.09
2019-06-01T15:33:42.699Z,100578.31
2019-06-01T15:38:46.157Z,100568.88
2019-06-01T15:43:50.825Z,100564.44
2019-06-01T15:48:56.002Z,100561.94
2019-06-01T15:53:59.618Z,100561.33
2019-06-01T15:59:03.149Z,100557.62
2019-06-01T16:04:06.610Z,100554.05
2019-06-01T16:09:10.073Z,100546.05
2019-06-01T16:14:13.536Z,100538.52
2019-06-01T16:19:17.001Z,100533.22
2019-06-01T16:24:20.459Z,100537.11
2019-06-01T16:29:23.921Z,100531.87
2019-06-01T16:34:27.383Z,100538.37
2019-06-01T16:39:30.841Z,100532.92
2019-06-01T16:44:34.300Z,100523.06
2019-06-01T16:49:37.765Z,100518.96
2019-06-01T16:54:41.223Z,100512.05
2019-06-01T16:59:44.692Z,100514.67
2019-06-01T17:04:48.144Z,100509.70
2019-06-01T17:09:51.610Z,100502.01
2019-06-01T17:14:55.073Z,100509.88
2019-06-01T17:19:59.020Z,100501.66
2019-06-01T17:25:03.679Z,100501.71
2019-06-01T17:30:11.532Z,100504.23
2019-06-01T17:35:12.746Z,100499.88
2019-06-01T17:40:16.211Z,100505.80
2019-06-01T17:45:20.006Z,100502.33
2019-06-01T17:50:24.100Z,100495.78
2019-06-01T17:55:32.657Z,100493.28
2019-06-01T18:00:36.429Z,100495.12
2019-06-01T18:05:39.908Z,100486.91
2019-06-01T18:10:53.845Z,100487.75
2019-06-01T18:15:50.066Z,100491.59
2019-06-01T18:20:53.856Z,100497.34
2019-06-01T18:25:57.290Z,100493.59
2019-06-01T18:31:00.829Z,100500.88
2019-06-01T18:36:05.418Z,100498.97
2019-06-01T18:41:16.152Z,100500.27
2019-06-01T18:46:14.491Z,100501.32
2019-06-01T18:51:17.953Z,100499.92
2019-06-01T18:56:21.448Z,100489.06
2019-06-01T19:01:24.963Z,100496.52
2019-06-01T19:06:28.424Z,100507.00
2019-06-01T19:11:35.986Z,100501.48
2019-06-01T19:16:37.073Z,100501.97
2019-06-01T19:21:40.532Z,100510.35
2019-06-01T19:26:45.564Z,100523.52
2019-06-01T19:31:49.025Z,100518.29
2019-06-01T19:36:54.626Z,100526.98
2019-06-01T19:41:58.085Z,100530.51
2019-06-01T19:47:01.551Z,100534.14
2019-06-01T19:52:05.350Z,100535.83
2019-06-01T19:57:09.790Z,100538.80
2019-06-01T20:02:31.099Z,100542.29
2019-06-01T20:07:21.290Z,100547.70
2019-06-01T20:12:24.851Z,100544.38
2019-06-01T20:17:28.338Z,100540.02
2019-06-01T20:22:31.815Z,100546.25
2019-06-01T20:27:35.296Z,100547.99
2019-06-01T20:32:38.798Z,100549.48
2019-06-01T20:37:42.292Z,100552.19
2019-06-01T20:42:45.767Z,100548.31
2019-06-01T20:47:49.252Z,100560.21
2019-06-01T20:52:52.819Z,100563.52
2019-06-01T20:57:56.305Z,100564.14
2019-06-01T21:02:59.800Z,100570.77
2019-06-01T21:08:03.284Z,100565.27
2019-06-01T21:13:07.980Z,100570.06
2019-06-01T21:18:11.709Z,100566.95
2019-06-01T21:23:15.178Z,100574.62
2019-06-01T21:28:20.450Z,100573.17
2019-06-01T21:33:27.108Z,100572.21
2019-06-01T21:38:30.129Z,100570.46
2019-06-01T21:43:35.508Z,100561.24
2019-06-01T21:48:38.815Z,100564.64
2019-06-01T21:53:42.299Z,100568.83
2019-06-01T21:58:45.789Z,100575.45
2019-06-01T22:03:49.282Z,100575.14
2019-06-01T22:08:53.122Z,100578.97
2019-06-01T22:13:56.615Z,100576.00
2019-06-01T22:19:00.097Z,100576.17
2019-06-01T22:24:03.578Z,100572.80
2019-06-01T22:29:07.062Z,100575.05
2019-06-01T22:34:10.520Z,100575.95
2019-06-01T22:39:13.987Z,100573.41
2019-06-01T22:44:17.453Z,100573.84
2019-06-01T22:49:20.908Z,100560.80
2019-06-01T22:54:25.123Z,100555.47
2019-06-01T22:59:28.780Z,100562.87
2019-06-01T23:04:32.322Z,100552.97
2019-06-01T23:09:36.023Z,100557.58
2019-06-01T23:14:39.482Z,100558.02
2019-06-01T23:19:42.944Z,100562.20
2019-06-01T23:24:46.407Z,100563.92
2019-06-01T23:29:49.870Z,100563.92
2019-06-01T23:34:53.332Z,100562.00
2019-06-01T23:39:56.790Z,100564.00
2019-06-01T23:45:00.257Z,100555.31
2019-06-01T23:50:04.555Z,100552.42
2019-06-01T23:55:08.187Z,100550.41
